createdAt,value
2019-04-06T00:01:58.165Z,8.20
2019-04-06T00:04:29.481Z,8.20
2019-04-06T00:07:00.751Z,8.20
2019-04-06T00:09:32.083Z,8.10
2019-04-06T00:12:03.369Z,8.10
2019-04-06T00:14:34.680Z,8.10
2019-04-06T00:17:06.055Z,8.00
2019-04-06T00:19:37.377Z,8.10
2019-04-06T00:22:08.586Z,8.10
2019-04-06T00:24:39.969Z,8.10
2019-04-06T00:27:11.305Z,8.00
2019-04-06T00:29:42.701Z,8.00
2019-04-06T00:32:20.274Z,8.10
2019-04-06T00:34:51.551Z,8.10
2019-04-06T00:37:22.888Z,8.00
2019-04-06T00:45:13.870Z,8.00
2019-04-06T00:47:45.179Z,8.10
2019-04-06T00:50:17.236Z,8.00
2019-04-06T00:52:48.585Z,8.00
2019-04-06T00:55:19.916Z,8.00
2019-04-06T00:57:51.231Z,8.00
2019-04-06T01:00:22.861Z,8.10
2019-04-06T01:02:54.127Z,8.00
2019-04-06T01:05:25.458Z,8.00
2019-04-06T01:07:56.761Z,8.00
2019-04-06T01:10:28.072Z,8.00
2019-04-06T01:12:59.359Z,8.00
2019-04-06T01:15:30.738Z,8.00
2019-04-06T01:18:02.042Z,8.00
2019-04-06T01:20:33.522Z,8.00
2019-04-06T01:23:04.826Z,8.00
2019-04-06T01:25:36.672Z,8.00
2019-04-06T01:28:07.895Z,8.00
2019-04-06T01:30:39.259Z,8.00
2019-04-06T01:33:10.477Z,8.00
2019-04-06T01:35:41.895Z,8.00
2019-04-06T01:38:13.223Z,8.00
2019-04-06T01:40:44.673Z,8.00
2019-04-06T01:43:16.021Z,8.00
2019-04-06T01:45:47.340Z,8.00
2019-04-06T01:48:18.686Z,8.00
2019-04-06T01:50:49.986Z,8.00
2019-04-06T01:53:21.343Z,8.00
2019-04-06T01:55:52.659Z,8.00
2019-04-06T01:58:23.930Z,8.00
2019-04-06T02:01:17.067Z,8.10
2019-04-06T02:03:48.385Z,8.10
2019-04-06T02:06:19.667Z,8.20
2019-04-06T02:09:10.002Z,8.10
2019-04-06T02:14:44.952Z,8.20
2019-04-06T02:17:16.302Z,8.10
2019-04-06T02:19:47.673Z,8.20
2019-04-06T02:22:18.958Z,8.20
2019-04-06T02:24:50.200Z,8.20
2019-04-06T02:27:21.382Z,8.10
2019-04-06T02:30:13.630Z,8.10
2019-04-06T02:32:54.926Z,8.10
2019-04-06T02:35:38.899Z,8.10
2019-04-06T02:38:38.137Z,8.20
2019-04-06T02:41:14.849Z,8.10
2019-04-06T02:43:46.239Z,8.10
2019-04-06T02:46:17.657Z,8.10
2019-04-06T02:48:48.927Z,8.10
2019-04-06T02:51:20.222Z,8.10
2019-04-06T02:53:51.629Z,8.10
2019-04-06T02:56:22.924Z,8.20
2019-04-06T02:58:54.112Z,8.10
2019-04-06T03:01:25.316Z,8.20
2019-04-06T03:03:56.735Z,8.20
2019-04-06T03:06:28.092Z,8.20
2019-04-06T03:08:59.304Z,8.20
2019-04-06T03:11:30.640Z,8.20
2019-04-06T03:14:01.968Z,8.20
2019-04-06T03:16:33.241Z,8.20
2019-04-06T03:19:04.550Z,8.20
2019-04-06T03:21:35.996Z,8.20
2019-04-06T03:24:07.251Z,8.20
2019-04-06T03:26:38.447Z,8.20
2019-04-06T03:29:09.898Z,8.20
2019-04-06T03:31:41.413Z,8.20
2019-04-06T03:34:12.927Z,8.20
2019-04-06T03:36:44.313Z,8.30
2019-04-06T03:39:15.634Z,8.20
2019-04-06T03:47:07.511Z,8.20
2019-04-06T03:49:38.853Z,8.20
2019-04-06T03:52:10.007Z,8.30
2019-04-06T03:54:41.241Z,8.30
2019-04-06T03:57:16.001Z,8.30
2019-04-06T03:59:45.410Z,8.30
2019-04-06T04:02:16.668Z,8.40
2019-04-06T04:04:47.898Z,8.30
2019-04-06T04:07:19.195Z,8.30
2019-04-06T04:09:50.530Z,8.40
2019-04-06T04:12:21.747Z,8.40
2019-04-06T04:14:53.002Z,8.30
2019-04-06T04:17:24.267Z,8.30
2019-04-06T04:19:55.665Z,8.40
2019-04-06T04:22:26.929Z,8.40
2019-04-06T04:24:58.291Z,8.40
2019-04-06T04:27:30.706Z,8.40
2019-04-06T04:30:02.258Z,8.40
2019-04-06T04:32:33.381Z,8.40
2019-04-06T04:35:05.366Z,8.40
2019-04-06T04:37:36.649Z,8.30
2019-04-06T04:40:08.080Z,8.30
2019-04-06T04:42:39.256Z,8.30
2019-04-06T04:45:10.695Z,8.30
2019-04-06T04:47:41.910Z,8.30
2019-04-06T04:50:14.164Z,8.30
2019-04-06T04:52:45.391Z,8.30
2019-04-06T04:55:16.661Z,8.30
2019-04-06T04:57:48.140Z,8.30
2019-04-06T05:00:19.428Z,8.40
2019-04-06T05:02:50.707Z,8.30
2019-04-06T05:05:21.948Z,8.30
2019-04-06T05:07:53.116Z,8.30
2019-04-06T05:10:24.535Z,8.40
2019-04-06T05:12:55.824Z,8.40
2019-04-06T05:16:21.026Z,8.50
2019-04-06T05:18:52.452Z,8.50
2019-04-06T05:21:23.716Z,8.60
2019-04-06T05:23:55.092Z,8.50
2019-04-06T05:26:36.570Z,8.60
2019-04-06T05:28:59.317Z,8.60
2019-04-06T05:31:30.613Z,8.50
2019-04-06T05:34:01.820Z,8.60
2019-04-06T05:36:33.109Z,8.60
2019-04-06T05:39:05.226Z,8.60
2019-04-06T05:41:36.529Z,8.50
2019-04-06T05:44:07.776Z,8.50
2019-04-06T05:46:39.090Z,8.50
2019-04-06T05:49:10.335Z,8.60
2019-04-06T05:51:41.660Z,8.60
2019-04-06T05:54:12.866Z,8.60
2019-04-06T05:56:44.152Z,8.60
2019-04-06T05:59:15.375Z,8.60
2019-04-06T06:01:48.575Z,8.60
2019-04-06T06:04:19.563Z,8.60
2019-04-06T06:06:50.690Z,8.70
2019-04-06T06:09:21.965Z,8.70
2019-04-06T06:11:55.539Z,8.70
2019-04-06T06:14:26.154Z,8.70
2019-04-06T06:16:57.344Z,8.80
2019-04-06T06:19:28.600Z,8.90
2019-04-06T06:21:59.817Z,8.90
2019-04-06T06:24:31.065Z,8.90
2019-04-06T06:27:02.414Z,9.00
2019-04-06T06:29:33.734Z,9.00
2019-04-06T06:32:05.366Z,9.00
2019-04-06T06:34:36.675Z,9.10
2019-04-06T06:37:07.892Z,9.10
2019-04-06T06:39:39.422Z,9.10
2019-04-06T06:42:10.534Z,9.20
2019-04-06T06:44:41.833Z,9.30
2019-04-06T06:47:13.001Z,9.40
2019-04-06T06:49:46.746Z,9.40
2019-04-06T06:52:17.957Z,9.40
2019-04-06T06:54:49.153Z,9.50
2019-04-06T06:57:20.543Z,9.60
2019-04-06T06:59:51.888Z,9.70
2019-04-06T07:02:23.931Z,9.80
2019-04-06T07:04:59.725Z,9.80
2019-04-06T07:07:33.695Z,9.70
2019-04-06T07:10:24.087Z,9.60
2019-04-06T07:12:57.560Z,9.60
2019-04-06T07:15:28.806Z,9.60
2019-04-06T07:17:59.983Z,9.60
2019-04-06T07:20:31.205Z,9.70
2019-04-06T07:23:02.562Z,9.80
2019-04-06T07:25:33.888Z,9.70
2019-04-06T07:28:05.205Z,9.70
2019-04-06T07:30:36.456Z,9.80
2019-04-06T07:33:07.945Z,9.80
2019-04-06T07:35:39.225Z,9.80
2019-04-06T07:38:10.776Z,9.80
2019-04-06T07:40:42.009Z,9.80
2019-04-06T07:43:13.314Z,9.90
2019-04-06T07:45:44.617Z,10.00
2019-04-06T07:48:15.862Z,10.10
2019-04-06T07:50:47.302Z,10.10
2019-04-06T07:53:18.605Z,10.20
2019-04-06T07:55:49.891Z,10.30
2019-04-06T07:58:21.236Z,10.50
2019-04-06T08:00:52.506Z,10.60
2019-04-06T08:03:23.791Z,10.60
2019-04-06T08:05:57.240Z,10.60
2019-04-06T08:08:29.080Z,10.70
2019-04-06T08:11:00.623Z,10.80
2019-04-06T08:13:32.038Z,10.90
2019-04-06T08:18:35.888Z,11.00
2019-04-06T08:21:07.249Z,11.10
2019-04-06T08:23:38.661Z,11.20
2019-04-06T08:26:10.059Z,11.30
2019-04-06T08:28:41.277Z,11.40
2019-04-06T08:31:12.820Z,11.40
2019-04-06T08:33:44.055Z,11.50
2019-04-06T08:36:15.325Z,11.60
2019-04-06T08:38:47.395Z,11.60
2019-04-06T08:41:18.659Z,11.40
2019-04-06T08:43:49.958Z,11.30
2019-04-06T08:46:21.258Z,11.40
2019-04-06T08:48:52.487Z,11.70
2019-04-06T08:51:23.593Z,12.00
2019-04-06T08:53:54.915Z,12.30
2019-04-06T08:56:26.186Z,12.70
2019-04-06T08:58:57.388Z,12.80
2019-04-06T09:01:28.613Z,12.90
2019-04-06T09:04:00.119Z,13.00
2019-04-06T09:06:38.429Z,13.10
2019-04-06T09:09:20.976Z,13.20
2019-04-06T09:11:52.306Z,13.20
2019-04-06T09:14:23.633Z,13.40
2019-04-06T09:16:54.923Z,13.60
2019-04-06T09:19:26.504Z,14.00
2019-04-06T09:21:57.798Z,14.30
2019-04-06T09:24:29.619Z,14.30
2019-04-06T09:27:01.000Z,14.40
2019-04-06T09:29:32.260Z,14.60
2019-04-06T09:32:03.638Z,14.90
2019-04-06T09:34:34.906Z,15.10
2019-04-06T09:37:06.203Z,15.50
2019-04-06T09:39:37.476Z,15.40
2019-04-06T09:42:08.834Z,15.10
2019-04-06T09:44:46.422Z,14.90
2019-04-06T09:47:34.772Z,14.70
2019-04-06T09:50:34.607Z,14.60
2019-04-06T09:53:33.190Z,14.70
2019-04-06T09:56:25.474Z,15.10
2019-04-06T09:59:14.399Z,15.50
2019-04-06T10:02:05.320Z,15.50
2019-04-06T10:04:54.070Z,15.60
2019-04-06T10:07:49.505Z,15.60
2019-04-06T10:10:39.521Z,15.40
2019-04-06T10:13:18.935Z,15.50
2019-04-06T10:16:07.902Z,15.60
2019-04-06T10:19:07.058Z,15.40
2019-04-06T10:22:03.409Z,15.10
2019-04-06T10:25:02.901Z,15.10
2019-04-06T10:27:55.570Z,15.50
2019-04-06T10:30:54.506Z,15.70
2019-04-06T10:33:43.183Z,15.50
2019-04-06T10:36:39.334Z,15.50
2019-04-06T10:39:35.532Z,15.50
2019-04-06T10:42:24.424Z,15.60
2019-04-06T10:45:16.957Z,15.50
2019-04-06T10:48:16.275Z,15.60
2019-04-06T10:51:13.579Z,15.50
2019-04-06T10:54:04.152Z,15.50
2019-04-06T10:56:50.160Z,15.80
2019-04-06T11:00:00.300Z,15.90
2019-04-06T11:02:58.492Z,15.80
2019-04-06T11:05:51.601Z,15.90
2019-04-06T11:08:50.805Z,15.80
2019-04-06T11:11:44.598Z,15.80
2019-04-06T11:17:16.796Z,15.60
2019-04-06T11:20:23.590Z,15.60
2019-04-06T11:23:22.176Z,15.60
2019-04-06T11:26:12.155Z,15.80
2019-04-06T11:29:20.518Z,15.70
2019-04-06T11:32:48.965Z,15.70
2019-04-06T11:37:31.487Z,15.90
2019-04-06T11:43:04.106Z,16.30
2019-04-06T11:52:46.485Z,16.10
2019-04-06T11:55:39.421Z,16.40
2019-04-06T11:58:41.742Z,16.70
2019-04-06T12:01:20.436Z,16.80
2019-04-06T12:04:07.633Z,16.80
2019-04-06T12:06:56.262Z,16.80
2019-04-06T12:09:45.371Z,17.00
2019-04-06T12:12:36.506Z,17.20
2019-04-06T12:15:39.304Z,17.10
2019-04-06T12:18:29.390Z,16.90
2019-04-06T12:21:13.934Z,17.00
2019-04-06T12:24:07.443Z,17.00
2019-04-06T12:27:15.985Z,17.30
2019-04-06T12:29:54.624Z,17.60
2019-04-06T12:32:47.983Z,17.80
2019-04-06T12:35:41.163Z,18.00
2019-04-06T12:38:27.136Z,18.20
2019-04-06T12:41:15.932Z,18.10
2019-04-06T12:44:20.018Z,17.90
2019-04-06T12:47:15.271Z,17.90
2019-04-06T12:50:11.044Z,17.80
2019-04-06T12:53:00.184Z,17.70
2019-04-06T12:55:51.716Z,17.70
2019-04-06T12:58:41.748Z,17.50
2019-04-06T13:01:34.835Z,17.30
2019-04-06T13:04:23.759Z,17.10
2019-04-06T13:07:29.122Z,17.00
2019-04-06T13:10:19.686Z,17.00
2019-04-06T13:13:10.247Z,17.00
2019-04-06T13:15:53.339Z,17.00
2019-04-06T13:18:42.243Z,17.10
2019-04-06T13:21:31.181Z,17.20
2019-04-06T13:24:26.744Z,17.40
2019-04-06T13:27:06.736Z,17.50
2019-04-06T13:29:51.976Z,17.50
2019-04-06T13:32:45.104Z,17.30
2019-04-06T13:35:51.556Z,17.00
2019-04-06T13:38:47.807Z,16.90
2019-04-06T13:41:38.112Z,17.00
2019-04-06T13:44:20.496Z,17.00
2019-04-06T13:47:22.615Z,17.10
2019-04-06T13:50:24.939Z,17.20
2019-04-06T13:53:05.894Z,17.50
2019-04-06T13:55:58.914Z,17.80
2019-04-06T13:58:59.676Z,18.10
2019-04-06T14:01:37.871Z,18.30
2019-04-06T14:04:24.608Z,18.40
2019-04-06T14:07:23.693Z,18.30
2019-04-06T14:10:16.742Z,18.20
2019-04-06T14:13:06.732Z,18.00
2019-04-06T14:15:54.629Z,18.00
2019-04-06T14:18:43.673Z,17.90
2019-04-06T14:21:33.676Z,17.90
2019-04-06T14:24:23.704Z,18.10
2019-04-06T14:27:06.485Z,18.20
2019-04-06T14:29:55.809Z,18.20
2019-04-06T14:32:40.584Z,18.20
2019-04-06T14:35:46.173Z,18.20
2019-04-06T14:38:54.161Z,18.10
2019-04-06T14:41:43.176Z,17.90
2019-04-06T14:44:39.071Z,18.00
2019-04-06T14:47:30.751Z,18.00
2019-04-06T14:50:19.273Z,17.70
2019-04-06T14:53:11.519Z,17.80
2019-04-06T14:56:04.671Z,17.90
2019-04-06T14:59:05.109Z,17.90
2019-04-06T15:01:55.546Z,17.80
2019-04-06T15:04:42.207Z,17.70
2019-04-06T15:07:38.279Z,17.90
2019-04-06T15:10:18.817Z,18.00
2019-04-06T15:13:07.886Z,18.00
2019-04-06T15:16:14.448Z,18.00
2019-04-06T15:19:19.656Z,17.90
2019-04-06T15:22:12.817Z,17.80
2019-04-06T15:25:08.760Z,17.60
2019-04-06T15:28:15.323Z,17.70
2019-04-06T15:31:03.219Z,17.70
2019-04-06T15:33:59.581Z,17.70
2019-04-06T15:36:52.397Z,17.70
2019-04-06T15:42:12.425Z,17.90
2019-04-06T15:45:11.914Z,17.90
2019-04-06T15:48:15.029Z,17.80
2019-04-06T15:51:11.282Z,17.60
2019-04-06T15:54:10.616Z,17.50
2019-04-06T15:57:09.755Z,17.50
2019-04-06T16:00:12.320Z,17.60
2019-04-06T16:03:08.598Z,17.60
2019-04-06T16:05:59.536Z,17.60
2019-04-06T16:08:49.486Z,17.60
2019-04-06T16:11:52.289Z,17.60
2019-04-06T16:14:45.731Z,17.40
2019-04-06T16:17:47.872Z,17.20
2019-04-06T16:20:26.931Z,17.10
2019-04-06T16:23:32.623Z,17.30
2019-04-06T16:26:25.737Z,17.50
2019-04-06T16:29:15.033Z,17.60
2019-04-06T16:32:13.845Z,17.60
2019-04-06T16:35:06.613Z,17.70
2019-04-06T16:37:58.274Z,17.80
2019-04-06T16:40:56.003Z,17.90
2019-04-06T16:43:58.360Z,18.10
2019-04-06T16:46:51.551Z,18.20
2019-04-06T16:49:56.709Z,18.10
2019-04-06T16:52:57.829Z,17.90
2019-04-06T16:55:47.258Z,17.70
2019-04-06T16:58:29.478Z,17.50
2019-04-06T17:01:11.161Z,17.50
2019-04-06T17:03:51.400Z,17.50
2019-04-06T17:06:43.256Z,17.40
2019-04-06T17:09:42.307Z,17.20
2019-04-06T17:12:31.117Z,17.10
2019-04-06T17:15:23.321Z,17.00
2019-04-06T17:18:09.316Z,16.90
2019-04-06T17:21:04.716Z,16.80
2019-04-06T17:23:57.572Z,16.70
2019-04-06T17:26:51.901Z,16.60
2019-04-06T17:29:45.925Z,16.50
2019-04-06T17:32:38.631Z,16.40
2019-04-06T17:35:27.545Z,16.30
2019-04-06T17:38:29.604Z,16.20
2019-04-06T17:41:53.492Z,16.10
2019-04-06T17:44:50.139Z,15.90
2019-04-06T17:47:42.878Z,15.80
2019-04-06T17:50:23.928Z,15.60
2019-04-06T17:53:20.155Z,15.50
2019-04-06T17:56:12.924Z,15.30
2019-04-06T17:59:03.005Z,15.20
2019-04-06T18:01:53.142Z,15.10
2019-04-06T18:04:47.027Z,15.00
2019-04-06T18:07:34.909Z,14.90
2019-04-06T18:10:17.436Z,14.70
2019-04-06T18:13:11.747Z,14.60
2019-04-06T18:15:59.468Z,14.50
2019-04-06T18:18:33.009Z,14.30
2019-04-06T18:21:05.051Z,14.20
2019-04-06T18:23:40.613Z,14.10
2019-04-06T18:26:25.579Z,13.90
2019-04-06T18:29:06.558Z,13.80
2019-04-06T18:31:59.686Z,13.70
2019-04-06T18:34:38.763Z,13.50
2019-04-06T18:39:53.562Z,13.20
2019-04-06T18:42:36.700Z,13.20
2019-04-06T18:45:08.680Z,13.10
2019-04-06T18:47:42.827Z,13.20
2019-04-06T18:50:17.243Z,13.40
2019-04-06T18:52:48.853Z,13.70
2019-04-06T18:55:21.397Z,13.90
2019-04-06T18:57:54.368Z,14.10
2019-04-06T19:00:26.389Z,14.20
2019-04-06T19:03:11.067Z,14.30
2019-04-06T19:05:32.190Z,14.40
2019-04-06T19:08:05.220Z,14.40
2019-04-06T19:10:38.430Z,14.40
2019-04-06T19:13:09.991Z,14.20
2019-04-06T19:15:45.649Z,14.20
2019-04-06T19:18:18.457Z,14.10
2019-04-06T19:20:52.867Z,14.00
2019-04-06T19:23:24.471Z,14.00
2019-04-06T19:25:55.948Z,13.90
2019-04-06T19:28:28.842Z,13.80
2019-04-06T19:31:00.272Z,13.70
2019-04-06T19:33:33.299Z,13.60
2019-04-06T19:36:07.028Z,13.50
2019-04-06T19:38:38.416Z,13.40
2019-04-06T19:41:09.695Z,13.30
2019-04-06T19:43:40.996Z,13.30
2019-04-06T19:46:12.380Z,13.20
2019-04-06T19:48:43.682Z,13.10
2019-04-06T19:51:14.947Z,13.00
2019-04-06T19:53:46.142Z,12.80
2019-04-06T19:56:17.452Z,12.70
2019-04-06T19:58:49.278Z,12.70
2019-04-06T20:01:22.219Z,12.70
2019-04-06T20:03:56.394Z,12.70
2019-04-06T20:06:29.580Z,12.70
2019-04-06T20:09:00.873Z,12.70
2019-04-06T20:11:32.181Z,12.70
2019-04-06T20:14:04.064Z,12.70
2019-04-06T20:16:35.692Z,12.60
2019-04-06T20:19:09.208Z,12.50
2019-04-06T20:21:40.988Z,12.50
2019-04-06T20:24:12.749Z,12.60
2019-04-06T20:26:44.127Z,12.60
2019-04-06T20:29:15.533Z,12.60
2019-04-06T20:31:47.189Z,12.60
2019-04-06T20:34:18.599Z,12.70
2019-04-06T20:36:49.837Z,12.80
2019-04-06T20:39:21.127Z,12.90
2019-04-06T20:41:52.385Z,13.00
2019-04-06T20:44:23.737Z,13.10
2019-04-06T20:46:55.138Z,13.20
2019-04-06T20:49:26.379Z,13.20
2019-04-06T20:51:58.890Z,13.20
2019-04-06T20:54:30.741Z,13.20
2019-04-06T20:57:02.210Z,13.10
2019-04-06T20:59:33.493Z,13.00
2019-04-06T21:02:04.771Z,12.90
2019-04-06T21:04:35.937Z,12.90
2019-04-06T21:07:07.201Z,12.80
2019-04-06T21:09:38.397Z,12.80
2019-04-06T21:12:09.751Z,12.60
2019-04-06T21:14:41.502Z,12.60
2019-04-06T21:17:12.935Z,12.50
2019-04-06T21:19:44.290Z,12.40
2019-04-06T21:22:16.136Z,12.30
2019-04-06T21:24:47.384Z,12.20
2019-04-06T21:27:18.678Z,12.20
2019-04-06T21:29:49.933Z,12.10
2019-04-06T21:34:50.892Z,12.00
2019-04-06T21:37:22.685Z,12.00
2019-04-06T21:39:54.311Z,12.00
2019-04-06T21:42:26.405Z,12.00
2019-04-06T21:44:58.146Z,12.00
2019-04-06T21:47:29.673Z,11.90
2019-04-06T21:50:00.824Z,11.90
2019-04-06T21:52:32.023Z,11.80
2019-04-06T21:55:03.719Z,11.80
2019-04-06T21:57:35.485Z,11.80
2019-04-06T22:00:08.656Z,11.70
2019-04-06T22:02:40.210Z,11.70
2019-04-06T22:05:12.058Z,11.60
2019-04-06T22:07:49.586Z,11.70
2019-04-06T22:10:17.244Z,11.70
2019-04-06T22:12:48.995Z,11.70
2019-04-06T22:15:20.318Z,11.80
2019-04-06T22:17:51.974Z,11.90
2019-04-06T22:20:23.337Z,12.00
2019-04-06T22:22:54.591Z,12.10
2019-04-06T22:25:25.841Z,12.30
2019-04-06T22:27:57.021Z,12.40
2019-04-06T22:30:28.181Z,12.50
2019-04-06T22:32:59.303Z,12.50
2019-04-06T22:35:30.542Z,12.60
2019-04-06T22:38:01.798Z,12.60
2019-04-06T22:40:32.965Z,12.70
2019-04-06T22:43:04.722Z,12.70
2019-04-06T22:45:36.123Z,12.70
2019-04-06T22:48:07.502Z,12.70
2019-04-06T22:50:39.345Z,12.70
2019-04-06T22:53:10.636Z,12.70
2019-04-06T22:55:41.770Z,12.70
2019-04-06T22:58:13.082Z,12.70
2019-04-06T23:00:53.112Z,12.80
2019-04-06T23:03:43.473Z,12.80
2019-04-06T23:06:18.694Z,12.80
2019-04-06T23:08:49.977Z,12.90
2019-04-06T23:11:21.612Z,12.90
2019-04-06T23:13:53.353Z,12.90
2019-04-06T23:16:24.562Z,12.90
2019-04-06T23:18:56.085Z,12.90
2019-04-06T23:21:27.228Z,12.80
2019-04-06T23:23:58.421Z,12.80
2019-04-06T23:26:29.642Z,12.80
2019-04-06T23:29:00.868Z,12.80
2019-04-06T23:31:32.286Z,12.80
2019-04-06T23:34:03.479Z,12.80
2019-04-06T23:36:34.749Z,12.70
2019-04-06T23:39:08.128Z,12.70
2019-04-06T23:41:39.217Z,12.70
2019-04-06T23:44:10.435Z,12.80
2019-04-06T23:46:41.876Z,12.80
2019-04-06T23:49:13.368Z,12.70
2019-04-06T23:51:47.839Z,12.70
2019-04-06T23:54:19.235Z,12.70
2019-04-06T23:56:51.274Z,12.70
2019-04-06T23:59:23.291Z,12.70
